createdAt,value
2018-04-23T00:00:25.591Z,99086.70
2018-04-23T00:02:54.263Z,99086.03
2018-04-23T00:05:23.037Z,99086.20
2018-04-23T00:07:54.454Z,99089.50
2018-04-23T00:10:23.253Z,99082.98
2018-04-23T00:12:51.794Z,99083.45
2018-04-23T00:15:20.442Z,99081.46
2018-04-23T00:17:49.920Z,99081.92
2018-04-23T00:20:18.596Z,99077.95
2018-04-23T00:22:47.160Z,99080.91
2018-04-23T00:25:16.502Z,99076.30
2018-04-23T00:27:46.309Z,99078.16
2018-04-23T00:30:15.124Z,99080.56
2018-04-23T00:32:43.757Z,99084.16
2018-04-23T00:35:13.479Z,99085.97
2018-04-23T00:37:42.534Z,99084.55
2018-04-23T00:40:11.254Z,99087.91
2018-04-23T00:42:39.905Z,99086.19
2018-04-23T00:45:08.601Z,99092.55
2018-04-23T00:47:37.242Z,99088.18
2018-04-23T00:50:05.871Z,99088.25
2018-04-23T00:52:34.559Z,99090.20
2018-04-23T00:55:03.277Z,99090.50
2018-04-23T00:57:32.004Z,99094.91
2018-04-23T01:00:00.693Z,99101.55
2018-04-23T01:02:29.346Z,99097.23
2018-04-23T01:04:57.952Z,99098.55
2018-04-23T01:07:27.527Z,99101.02
2018-04-23T01:09:56.452Z,99104.33
2018-04-23T01:12:25.462Z,99104.75
2018-04-23T01:14:54.171Z,99101.63
2018-04-23T01:17:22.964Z,99096.88
2018-04-23T01:19:51.559Z,99097.45
2018-04-23T01:22:20.239Z,99098.22
2018-04-23T01:24:48.829Z,99096.72
2018-04-23T01:29:51.103Z,99104.59
2018-04-23T01:32:19.794Z,99102.28
2018-04-23T01:34:49.224Z,99105.02
2018-04-23T01:37:18.220Z,99108.03
2018-04-23T01:42:21.711Z,99105.23
2018-04-23T01:44:50.389Z,99104.70
2018-04-23T01:47:19.813Z,99115.56
2018-04-23T01:52:22.993Z,99116.28
2018-04-23T01:54:51.741Z,99112.20
2018-04-23T01:57:20.387Z,99112.89
2018-04-23T01:59:49.226Z,99112.05
2018-04-23T02:02:18.881Z,99112.88
2018-04-23T02:04:47.904Z,99112.91
2018-04-23T02:07:16.609Z,99117.87
2018-04-23T02:09:46.172Z,99116.74
2018-04-23T02:12:15.752Z,99117.86
2018-04-23T02:14:44.378Z,99117.45
2018-04-23T02:17:13.120Z,99115.26
2018-04-23T02:19:41.757Z,99109.37
2018-04-23T02:22:10.349Z,99112.98
2018-04-23T02:24:39.075Z,99112.89
2018-04-23T02:27:08.190Z,99112.08
2018-04-23T02:29:37.349Z,99108.95
2018-04-23T02:32:07.451Z,99110.27
2018-04-23T02:34:36.481Z,99100.95
2018-04-23T02:37:05.220Z,99100.77
2018-04-23T02:39:34.753Z,99098.50
2018-04-23T02:42:03.909Z,99097.14
2018-04-23T02:44:32.567Z,99099.19
2018-04-23T02:47:01.867Z,99104.24
2018-04-23T02:49:30.850Z,99101.27
2018-04-23T02:51:59.520Z,99097.77
2018-04-23T02:54:28.851Z,99096.37
2018-04-23T02:56:58.091Z,99093.25
2018-04-23T02:59:26.785Z,99102.01
2018-04-23T03:01:55.625Z,99094.09
2018-04-23T03:04:25.598Z,99084.27
2018-04-23T03:06:54.392Z,99084.62
2018-04-23T03:09:23.032Z,99078.00
2018-04-23T03:11:51.700Z,99082.92
2018-04-23T03:14:20.345Z,99080.14
2018-04-23T03:16:49.779Z,99090.17
2018-04-23T03:19:18.460Z,99083.01
2018-04-23T03:21:48.376Z,99091.64
2018-04-23T03:24:16.932Z,99083.59
2018-04-23T03:26:46.350Z,99096.13
2018-04-23T03:29:14.985Z,99099.59
2018-04-23T03:31:43.693Z,99093.11
2018-04-23T03:34:12.724Z,99094.84
2018-04-23T03:36:42.149Z,99096.48
2018-04-23T03:39:10.875Z,99089.58
2018-04-23T03:41:39.550Z,99095.08
2018-04-23T03:44:08.298Z,99097.55
2018-04-23T03:46:37.011Z,99103.65
2018-04-23T03:49:06.497Z,99104.14
2018-04-23T03:51:35.106Z,99107.39
2018-04-23T03:54:03.680Z,99108.41
2018-04-23T03:56:32.464Z,99106.78
2018-04-23T03:59:01.883Z,99111.13
2018-04-23T04:01:30.437Z,99111.86
2018-04-23T04:03:59.458Z,99109.54
2018-04-23T04:06:29.034Z,99113.98
2018-04-23T04:08:59.623Z,99110.70
2018-04-23T04:11:28.645Z,99113.98
2018-04-23T04:14:16.163Z,99119.70
2018-04-23T04:16:58.792Z,99117.91
2018-04-23T04:19:27.702Z,99120.62
2018-04-23T04:21:56.393Z,99122.66
2018-04-23T04:24:25.266Z,99121.64
2018-04-23T04:26:53.937Z,99125.34
2018-04-23T04:31:56.276Z,99124.45
2018-04-23T04:34:25.247Z,99117.05
2018-04-23T04:36:54.237Z,99123.94
2018-04-23T04:39:24.101Z,99127.67
2018-04-23T04:41:52.865Z,99125.00
2018-04-23T04:44:21.499Z,99131.66
2018-04-23T04:46:50.280Z,99131.80
2018-04-23T04:49:18.973Z,99128.80
2018-04-23T04:51:47.572Z,99131.16
2018-04-23T04:54:16.289Z,99132.22
2018-04-23T04:56:44.992Z,99135.44
2018-04-23T04:59:13.724Z,99139.95
2018-04-23T05:01:43.318Z,99137.52
2018-04-23T05:04:12.249Z,99136.37
2018-04-23T05:06:40.978Z,99140.61
2018-04-23T05:09:11.193Z,99142.88
2018-04-23T05:11:40.057Z,99141.01
2018-04-23T05:14:08.622Z,99143.12
2018-04-23T05:16:37.409Z,99142.80
2018-04-23T05:19:06.084Z,99149.05
2018-04-23T05:21:34.842Z,99143.93
2018-04-23T05:24:03.461Z,99144.33
2018-04-23T05:29:07.209Z,99143.78
2018-04-23T05:31:35.775Z,99140.66
2018-04-23T05:34:04.343Z,99149.61
2018-04-23T05:39:08.027Z,99137.40
2018-04-23T05:41:36.714Z,99137.82
2018-04-23T05:44:06.190Z,99148.14
2018-04-23T05:46:34.870Z,99146.91
2018-04-23T05:49:03.477Z,99139.68
2018-04-23T05:51:32.291Z,99148.50
2018-04-23T05:54:01.104Z,99144.77
2018-04-23T05:56:29.817Z,99145.28
2018-04-23T05:58:58.599Z,99146.59
2018-04-23T06:01:28.168Z,99143.58
2018-04-23T06:03:57.101Z,99147.17
2018-04-23T06:06:26.087Z,99151.55
2018-04-23T06:08:54.919Z,99155.88
2018-04-23T06:11:23.594Z,99152.88
2018-04-23T06:13:52.257Z,99155.16
2018-04-23T06:16:21.655Z,99151.66
2018-04-23T06:18:50.828Z,99152.34
2018-04-23T06:23:53.351Z,99152.73
2018-04-23T06:26:21.992Z,99146.59
2018-04-23T06:28:50.754Z,99148.79
2018-04-23T06:31:20.720Z,99139.87
2018-04-23T06:33:51.537Z,99142.40
2018-04-23T06:36:21.138Z,99142.98
2018-04-23T06:38:49.881Z,99147.06
2018-04-23T06:41:18.649Z,99143.97
2018-04-23T06:43:48.975Z,99139.55
2018-04-23T06:48:51.264Z,99138.26
2018-04-23T06:51:19.991Z,99137.19
2018-04-23T06:53:49.864Z,99139.48
2018-04-23T06:56:20.817Z,99145.02
2018-04-23T06:58:50.066Z,99140.30
2018-04-23T07:01:19.522Z,99142.52
2018-04-23T07:03:48.241Z,99140.44
2018-04-23T07:06:17.006Z,99141.84
2018-04-23T07:08:47.423Z,99143.28
2018-04-23T07:11:16.387Z,99139.94
2018-04-23T07:13:45.356Z,99151.77
2018-04-23T07:16:14.266Z,99149.75
2018-04-23T07:18:42.894Z,99149.25
2018-04-23T07:23:46.327Z,99149.76
2018-04-23T07:26:15.077Z,99148.98
2018-04-23T07:28:43.752Z,99151.98
2018-04-23T07:31:12.497Z,99148.37
2018-04-23T07:33:41.259Z,99152.63
2018-04-23T07:36:09.961Z,99147.53
2018-04-23T07:38:38.743Z,99149.72
2018-04-23T07:41:07.529Z,99148.39
2018-04-23T07:43:36.210Z,99148.91
2018-04-23T07:46:04.937Z,99154.08
2018-04-23T07:48:34.337Z,99151.48
2018-04-23T07:51:03.511Z,99152.88
2018-04-23T07:53:32.965Z,99149.67
2018-04-23T07:56:02.098Z,99150.83
2018-04-23T07:58:30.828Z,99154.36
2018-04-23T08:01:00.864Z,99145.70
2018-04-23T08:03:30.751Z,99156.86
2018-04-23T08:05:59.826Z,99148.47
2018-04-23T08:08:28.486Z,99151.56
2018-04-23T08:10:57.352Z,99150.77
2018-04-23T08:13:25.958Z,99157.55
2018-04-23T08:15:54.739Z,99159.81
2018-04-23T08:20:58.175Z,99161.02
2018-04-23T08:23:27.030Z,99159.81
2018-04-23T08:25:55.700Z,99160.90
2018-04-23T08:28:25.196Z,99152.17
2018-04-23T08:30:53.898Z,99151.22
2018-04-23T08:33:22.659Z,99155.36
2018-04-23T08:35:51.502Z,99151.23
2018-04-23T08:38:20.213Z,99158.95
2018-04-23T08:40:48.878Z,99159.12
2018-04-23T08:43:18.247Z,99161.03
2018-04-23T08:45:47.060Z,99155.44
2018-04-23T08:48:15.727Z,99155.11
2018-04-23T08:50:46.784Z,99159.75
2018-04-23T08:53:16.447Z,99157.00
2018-04-23T08:55:46.798Z,99156.61
2018-04-23T08:58:15.569Z,99159.38
2018-04-23T09:00:45.142Z,99158.95
2018-04-23T09:03:13.963Z,99155.23
2018-04-23T09:05:42.900Z,99156.92
2018-04-23T09:08:11.469Z,99162.02
2018-04-23T09:10:40.331Z,99157.05
2018-04-23T09:13:09.839Z,99156.20
2018-04-23T09:15:38.742Z,99149.54
2018-04-23T09:18:07.627Z,99153.35
2018-04-23T09:20:37.061Z,99153.11
2018-04-23T09:23:06.899Z,99153.56
2018-04-23T09:25:35.588Z,99145.22
2018-04-23T09:28:04.300Z,99144.41
2018-04-23T09:30:32.892Z,99136.05
2018-04-23T09:33:01.634Z,99139.55
2018-04-23T09:35:30.326Z,99136.01
2018-04-23T09:40:32.556Z,99133.14
2018-04-23T09:43:01.276Z,99135.42
2018-04-23T09:45:30.011Z,99130.17
2018-04-23T09:47:59.256Z,99136.27
2018-04-23T09:50:28.757Z,99138.52
2018-04-23T09:52:58.295Z,99134.42
2018-04-23T09:55:27.024Z,99131.42
2018-04-23T09:57:55.807Z,99126.76
2018-04-23T10:00:31.945Z,99123.27
2018-04-23T10:03:06.439Z,99117.33
2018-04-23T10:05:35.242Z,99115.20
2018-04-23T10:08:04.111Z,99121.41
2018-04-23T10:10:33.331Z,99115.38
2018-04-23T10:13:02.145Z,99116.02
2018-04-23T10:15:31.697Z,99119.60
2018-04-23T10:18:01.176Z,99109.54
2018-04-23T10:20:29.893Z,99110.48
2018-04-23T10:22:58.604Z,99091.45
2018-04-23T10:25:27.440Z,99088.25
2018-04-23T10:27:56.958Z,99081.40
2018-04-23T10:32:59.592Z,99080.63
2018-04-23T10:35:29.620Z,99083.86
2018-04-23T10:37:59.074Z,99082.57
2018-04-23T10:40:28.575Z,99073.30
2018-04-23T10:42:57.311Z,99076.55
2018-04-23T10:48:00.396Z,99080.22
2018-04-23T10:50:29.781Z,99080.06
2018-04-23T10:52:58.417Z,99074.12
2018-04-23T10:55:27.174Z,99073.20
2018-04-23T10:57:55.780Z,99065.25
2018-04-23T11:00:24.541Z,99069.94
2018-04-23T11:02:54.796Z,99063.42
2018-04-23T11:05:23.992Z,99056.20
2018-04-23T11:07:52.793Z,99053.81
2018-04-23T11:10:21.471Z,99061.50
2018-04-23T11:12:50.926Z,99050.83
2018-04-23T11:15:20.012Z,99056.71
2018-04-23T11:17:49.418Z,99042.58
2018-04-23T11:20:19.142Z,99044.45
2018-04-23T11:22:47.863Z,99052.61
2018-04-23T11:25:16.879Z,99044.78
2018-04-23T11:27:45.615Z,99050.58
2018-04-23T11:30:14.402Z,99044.45
2018-04-23T11:32:44.206Z,99044.64
2018-04-23T11:35:13.335Z,99047.23
2018-04-23T11:40:16.250Z,99034.97
2018-04-23T11:42:44.876Z,99040.33
2018-04-23T11:45:13.716Z,99040.23
2018-04-23T11:47:42.551Z,99033.66
2018-04-23T11:50:11.370Z,99028.34
2018-04-23T11:55:14.881Z,99029.17
2018-04-23T11:57:45.788Z,99022.80
2018-04-23T12:00:15.037Z,99032.42
2018-04-23T12:02:43.883Z,99027.48
2018-04-23T12:05:13.456Z,99025.97
2018-04-23T12:07:42.367Z,99014.91
2018-04-23T12:10:11.105Z,99013.16
2018-04-23T12:12:39.897Z,99007.73
2018-04-23T12:15:08.989Z,99007.56
2018-04-23T12:17:37.755Z,99003.30
2018-04-23T12:20:06.731Z,99006.54
2018-04-23T12:22:37.112Z,98999.14
2018-04-23T12:25:07.395Z,98996.28
2018-04-23T12:27:36.479Z,98997.07
2018-04-23T12:30:05.972Z,98991.24
2018-04-23T12:32:34.957Z,98992.48
2018-04-23T12:35:03.875Z,98993.47
2018-04-23T12:37:32.779Z,98983.38
2018-04-23T12:40:01.531Z,98978.00
2018-04-23T12:42:30.148Z,98975.23
2018-04-23T12:44:58.938Z,98970.70
2018-04-23T12:47:27.808Z,98968.56
2018-04-23T12:49:56.619Z,98972.48
2018-04-23T12:52:25.544Z,98966.83
2018-04-23T12:54:54.767Z,98961.98
2018-04-23T12:57:25.576Z,98955.86
2018-04-23T13:02:31.227Z,98951.14
2018-04-23T13:05:00.145Z,98954.36
2018-04-23T13:07:29.163Z,98949.33
2018-04-23T13:09:58.001Z,98947.22
2018-04-23T13:12:27.855Z,98943.91
2018-04-23T13:14:57.322Z,98942.27
2018-04-23T13:17:26.233Z,98940.95
2018-04-23T13:19:55.815Z,98934.41
2018-04-23T13:22:25.826Z,98927.48
2018-04-23T13:24:54.529Z,98927.63
2018-04-23T13:27:24.314Z,98925.69
2018-04-23T13:29:53.187Z,98923.75
2018-04-23T13:32:21.854Z,98926.56
2018-04-23T13:34:50.904Z,98919.19
2018-04-23T13:37:19.718Z,98913.58
2018-04-23T13:39:48.595Z,98913.73
2018-04-23T13:42:17.456Z,98918.72
2018-04-23T13:44:46.184Z,98919.55
2018-04-23T13:47:14.885Z,98918.93
2018-04-23T13:49:44.495Z,98916.94
2018-04-23T13:52:13.679Z,98906.68
2018-04-23T13:54:43.178Z,98904.81
2018-04-23T13:57:14.131Z,98902.50
2018-04-23T13:59:42.998Z,98898.81
2018-04-23T14:02:11.829Z,98896.38
2018-04-23T14:04:41.180Z,98894.53
2018-04-23T14:07:10.811Z,98890.00
2018-04-23T14:09:39.573Z,98890.67
2018-04-23T14:12:08.255Z,98888.98
2018-04-23T14:14:37.152Z,98889.34
2018-04-23T14:17:06.187Z,98891.07
2018-04-23T14:19:36.938Z,98884.33
2018-04-23T14:22:10.682Z,98889.48
2018-04-23T14:24:40.990Z,98877.36
2018-04-23T14:29:46.485Z,98883.39
2018-04-23T14:32:15.179Z,98880.55
2018-04-23T14:34:45.642Z,98882.30
2018-04-23T14:37:15.181Z,98876.42
2018-04-23T14:39:44.949Z,98877.47
2018-04-23T14:42:15.589Z,98877.88
2018-04-23T14:44:44.976Z,98881.16
2018-04-23T14:47:14.145Z,98874.44
2018-04-23T14:49:44.086Z,98873.30
2018-04-23T14:52:14.250Z,98878.58
2018-04-23T14:54:44.310Z,98872.52
2018-04-23T14:57:13.336Z,98873.86
2018-04-23T14:59:43.023Z,98882.20
2018-04-23T15:02:12.314Z,98880.31
2018-04-23T15:04:41.987Z,98881.25
2018-04-23T15:07:12.312Z,98885.60
2018-04-23T15:12:21.706Z,98878.99
2018-04-23T15:14:50.944Z,98881.67
2018-04-23T15:19:59.498Z,98878.13
2018-04-23T15:22:29.083Z,98884.00
2018-04-23T15:24:59.385Z,98883.41
2018-04-23T15:27:29.113Z,98877.33
2018-04-23T15:29:58.119Z,98875.39
2018-04-23T15:32:27.037Z,98873.02
2018-04-23T15:37:40.944Z,98873.16
2018-04-23T15:40:11.695Z,98871.45
2018-04-23T15:42:45.412Z,98874.26
2018-04-23T15:45:15.291Z,98871.39
2018-04-23T15:47:45.742Z,98868.93
2018-04-23T15:50:15.667Z,98873.98
2018-04-23T15:52:46.331Z,98871.59
2018-04-23T15:55:16.409Z,98864.78
2018-04-23T15:57:46.382Z,98865.18
2018-04-23T16:00:15.563Z,98872.17
2018-04-23T16:02:44.458Z,98874.03
2018-04-23T16:05:13.697Z,98871.94
2018-04-23T16:07:42.487Z,98871.81
2018-04-23T16:10:12.326Z,98872.25
2018-04-23T16:12:41.913Z,98872.73
2018-04-23T16:15:10.832Z,98868.36
2018-04-23T16:17:46.421Z,98866.55
2018-04-23T16:20:17.818Z,98862.25
2018-04-23T16:22:48.264Z,98860.62
2018-04-23T16:25:16.927Z,98868.92
2018-04-23T16:30:19.557Z,98867.34
2018-04-23T16:32:48.314Z,98862.60
2018-04-23T16:35:17.431Z,98869.42
2018-04-23T16:37:47.606Z,98866.34
2018-04-23T16:40:17.855Z,98862.83
2018-04-23T16:42:48.034Z,98865.42
2018-04-23T16:45:17.518Z,98861.55
2018-04-23T16:47:48.846Z,98868.55
2018-04-23T16:50:17.672Z,98865.47
2018-04-23T16:52:46.516Z,98864.34
2018-04-23T16:55:15.515Z,98867.53
2018-04-23T16:57:45.053Z,98865.58
2018-04-23T17:00:14.758Z,98869.19
2018-04-23T17:02:43.583Z,98870.83
2018-04-23T17:05:13.013Z,98874.00
2018-04-23T17:07:42.582Z,98871.30
2018-04-23T17:10:12.437Z,98868.99
2018-04-23T17:12:41.961Z,98867.70
2018-04-23T17:15:11.116Z,98866.33
2018-04-23T17:17:40.617Z,98869.77
2018-04-23T17:20:09.427Z,98867.81
2018-04-23T17:22:38.230Z,98874.56
2018-04-23T17:25:07.054Z,98874.20
2018-04-23T17:27:35.799Z,98878.73
2018-04-23T17:30:04.677Z,98881.34
2018-04-23T17:32:33.386Z,98884.03
2018-04-23T17:35:02.263Z,98880.70
2018-04-23T17:37:30.995Z,98886.19
2018-04-23T17:40:00.158Z,98886.16
2018-04-23T17:42:29.671Z,98887.80
2018-04-23T17:45:00.956Z,98891.02
2018-04-23T17:47:29.979Z,98889.92
2018-04-23T17:49:58.697Z,98890.31
2018-04-23T17:52:29.348Z,98890.92
2018-04-23T17:54:58.091Z,98885.22
2018-04-23T17:57:26.764Z,98882.46
2018-04-23T17:59:55.449Z,98891.69
2018-04-23T18:02:25.240Z,98886.31
2018-04-23T18:04:54.895Z,98894.08
2018-04-23T18:07:24.329Z,98896.20
2018-04-23T18:12:27.357Z,98900.64
2018-04-23T18:14:56.966Z,98901.83
2018-04-23T18:17:26.266Z,98904.27
2018-04-23T18:19:55.045Z,98910.22
2018-04-23T18:22:24.009Z,98901.55
2018-04-23T18:24:53.557Z,98908.47
2018-04-23T18:27:23.377Z,98909.23
2018-04-23T18:29:54.543Z,98911.33
2018-04-23T18:32:24.005Z,98916.05
2018-04-23T18:34:54.488Z,98917.00
2018-04-23T18:37:23.947Z,98925.68
2018-04-23T18:39:53.030Z,98924.47
2018-04-23T18:42:22.706Z,98928.22
2018-04-23T18:44:52.013Z,98930.53
2018-04-23T18:47:21.539Z,98938.48
2018-04-23T18:49:51.217Z,98940.19
2018-04-23T18:52:20.645Z,98950.95
2018-04-23T18:54:50.025Z,98950.05
2018-04-23T18:57:20.038Z,98959.45
2018-04-23T18:59:50.207Z,98961.56
2018-04-23T19:02:21.105Z,98961.08
2018-04-23T19:04:52.423Z,98962.16
2018-04-23T19:07:22.090Z,98971.11
2018-04-23T19:09:51.531Z,98976.66
2018-04-23T19:12:20.605Z,98972.36
2018-04-23T19:14:51.156Z,98977.14
2018-04-23T19:17:21.631Z,98982.20
2018-04-23T19:19:51.630Z,98982.50
2018-04-23T19:22:22.817Z,98989.60
2018-04-23T19:24:53.151Z,98989.09
2018-04-23T19:27:23.324Z,98992.23
2018-04-23T19:29:52.231Z,98994.61
2018-04-23T19:32:21.924Z,98990.61
2018-04-23T19:37:25.251Z,98998.57
2018-04-23T19:39:54.867Z,99004.81
2018-04-23T19:42:25.664Z,99002.62
2018-04-23T19:44:55.279Z,99003.25
2018-04-23T19:47:25.156Z,99004.23
2018-04-23T19:49:56.779Z,99007.91
2018-04-23T19:52:26.421Z,99001.87
2018-04-23T19:54:55.985Z,99001.06
2018-04-23T19:57:25.489Z,99007.16
2018-04-23T19:59:54.922Z,99014.34
2018-04-23T20:02:24.494Z,99014.81
2018-04-23T20:07:28.646Z,99019.10
2018-04-23T20:09:59.158Z,99015.52
2018-04-23T20:12:28.419Z,99021.09
2018-04-23T20:14:57.284Z,99023.43
2018-04-23T20:17:26.057Z,99025.45
2018-04-23T20:19:56.925Z,99027.84
2018-04-23T20:22:26.321Z,99033.33
2018-04-23T20:24:56.530Z,99040.02
2018-04-23T20:27:25.857Z,99040.95
2018-04-23T20:29:55.355Z,99045.19
2018-04-23T20:32:25.648Z,99039.13
2018-04-23T20:34:57.300Z,99039.50
2018-04-23T20:37:26.328Z,99043.20
2018-04-23T20:39:55.283Z,99039.20
2018-04-23T20:42:25.208Z,99040.20
2018-04-23T20:45:01.129Z,99042.84
2018-04-23T20:47:31.659Z,99039.88
2018-04-23T20:50:00.660Z,99030.70
2018-04-23T20:52:29.997Z,99040.37
2018-04-23T20:54:59.328Z,99038.88
2018-04-23T20:57:29.378Z,99038.26
2018-04-23T20:59:58.402Z,99037.30
2018-04-23T21:02:26.974Z,99029.73
2018-04-23T21:04:56.002Z,99031.98
2018-04-23T21:07:24.902Z,99036.48
2018-04-23T21:09:54.394Z,99034.68
2018-04-23T21:12:23.672Z,99037.23
2018-04-23T21:14:52.597Z,99033.28
2018-04-23T21:17:21.560Z,99039.19
2018-04-23T21:19:50.874Z,99035.22
2018-04-23T21:22:20.447Z,99032.63
2018-04-23T21:24:50.199Z,99032.34
2018-04-23T21:27:20.486Z,99038.41
2018-04-23T21:29:51.574Z,99038.88
2018-04-23T21:32:20.273Z,99030.88
2018-04-23T21:34:49.231Z,99031.59
2018-04-23T21:37:18.295Z,99031.05
2018-04-23T21:39:47.436Z,99028.95
2018-04-23T21:42:15.975Z,99032.08
2018-04-23T21:44:44.855Z,99034.73
2018-04-23T21:47:14.374Z,99034.73
2018-04-23T21:49:43.253Z,99040.80
2018-04-23T21:52:12.213Z,99041.98
2018-04-23T21:54:42.824Z,99039.97
2018-04-23T21:57:12.082Z,99035.72
2018-04-23T21:59:42.012Z,99047.36
2018-04-23T22:02:10.867Z,99048.23
2018-04-23T22:04:39.837Z,99051.30
2018-04-23T22:07:08.677Z,99048.60
2018-04-23T22:09:37.458Z,99047.20
2018-04-23T22:12:06.341Z,99047.61
2018-04-23T22:14:35.092Z,99047.72
2018-04-23T22:17:05.427Z,99048.64
2018-04-23T22:19:33.997Z,99045.73
2018-04-23T22:22:03.719Z,99048.73
2018-04-23T22:27:06.536Z,99053.59
2018-04-23T22:29:35.225Z,99061.11
2018-04-23T22:32:04.718Z,99065.84
2018-04-23T22:34:34.174Z,99070.73
2018-04-23T22:37:02.780Z,99074.45
2018-04-23T22:39:31.365Z,99067.34
2018-04-23T22:41:59.961Z,99068.56
2018-04-23T22:44:29.249Z,99066.34
2018-04-23T22:46:58.575Z,99065.05
2018-04-23T22:49:27.471Z,99060.92
2018-04-23T22:51:56.752Z,99067.55
2018-04-23T22:54:25.773Z,99067.75
2018-04-23T22:56:55.274Z,99068.64
2018-04-23T22:59:24.034Z,99070.41
2018-04-23T23:01:52.850Z,99072.69
2018-04-23T23:04:22.344Z,99065.52
2018-04-23T23:06:51.334Z,99067.89
2018-04-23T23:09:20.073Z,99058.67
2018-04-23T23:11:48.861Z,99059.52
2018-04-23T23:14:17.774Z,99060.35
2018-04-23T23:16:46.464Z,99055.78
2018-04-23T23:19:15.265Z,99055.00
2018-04-23T23:21:44.534Z,99058.95
2018-04-23T23:24:14.123Z,99061.95
2018-04-23T23:26:42.888Z,99055.85
2018-04-23T23:29:12.211Z,99060.34
2018-04-23T23:31:40.818Z,99054.84
2018-04-23T23:34:10.188Z,99062.20
2018-04-23T23:39:12.485Z,99069.98
2018-04-23T23:41:41.941Z,99065.38
2018-04-23T23:44:10.697Z,99068.05
2018-04-23T23:46:40.482Z,99070.20
2018-04-23T23:49:10.094Z,99060.44
2018-04-23T23:51:39.151Z,99066.41
2018-04-23T23:54:07.711Z,99064.95
2018-04-23T23:56:36.433Z,99062.60
